Sligo Airport - TAF
(Terminal Area Forecast)

Issued at 09:36 UTC on Sun. 15-Sep-19

--- METARS(SA) ---

METAR EISG(SLIGO) 150930Z 32004KT 290V020 7000 -DZ BKN021 OVC031

11/09 Q1025 =

--- TAFS() ---

TAF EISG(SLIGO) 150800Z 1509/1518 33005KT 9999 FEW010 BKN025 BECMG

1509/1512 VRB03KT TEMPO 1509/1518 5000 -RA BKN010 BECMG 1513/1516

11005KT =

--- SIGMETS(WS) ---

IE - No VALID SIGMETS/Warnings FOR THIS AREA

--- SIGMETS Volcanic(WV) ---

IE - No VALID SIGMETS/Warnings FOR THIS AREA

--- SIGMETS(WS) ---

EGPX SIGMET 03 VALID 150600/151000 EGRR- EGPX

SCOTTISH FIR SEV TURB FCST N OF N5800 AND E OF W00700 SFC/FL060

MOV E 30KT NC=

EGPX SIGMET 04 VALID 150600/151000 EGRR- EGPX

SCOTTISH FIR SEV MTW FCST WI N5745 W00500 - N5745 W00130 - N5500

W00002 - N5500 W00345 - N5745 W00500 FL060/300 STNR NC=

EGTT SIGMET 02 VALID 150600/151000 EGRR- EGTT

LONDON FIR SEV MTW FCST WI N5500 W00002 - N5300 E00100 - N5135

W00315 - N5500 W00345 - N5500 W00002 FL060/300 STNR NC=

Sligo Airport - METARs

Latest METARs for Sligo and Donegal Airports - updated every 30 mins